Time;durP1;ratioP1;P1;durP2;ratioP2;P2;SDS_P1;SDS_P2;PMS_P1;PMS_P2;Temp;Humidity;BMP_temperature;BMP_pressure;BME280_temperature;BME280_humidity;BME280_pressure;Samples;Min_cycle;Max_cycle;Signal;HPM_P1;HPM_P2
2023/06/20 00:00:09;;;;;;;10.38;7.63;;;21.60;99.50;;;;;;4852563;29;20830;-79
2023/06/20 00:02:38;;;;;;;11.95;7.82;;;21.50;99.50;;;;;;4866208;29;20832;-79
2023/06/20 00:05:05;;;;;;;9.63;7.30;;;21.50;99.60;;;;;;4862649;29;20052;-79
2023/06/20 00:07:33;;;;;;;11.10;7.65;;;21.50;99.70;;;;;;4852989;29;20040;-79
2023/06/20 00:10:00;;;;;;;12.85;7.78;;;21.40;99.90;;;;;;4853490;29;20077;-79
2023/06/20 00:12:28;;;;;;;11.95;8.27;;;21.40;99.90;;;;;;4847938;29;20063;-79
2023/06/20 00:14:55;;;;;;;11.93;7.35;;;21.40;99.90;;;;;;4847794;29;20044;-79
2023/06/20 00:17:25;;;;;;;12.02;8.20;;;21.40;99.80;;;;;;4877293;29;20500;-79
2023/06/20 00:19:52;;;;;;;11.05;7.38;;;21.40;99.90;;;;;;4864329;29;20056;-79
2023/06/20 00:22:19;;;;;;;10.60;7.30;;;21.30;99.90;;;;;;4862186;29;20195;-79
2023/06/20 00:24:47;;;;;;;11.90;8.45;;;21.30;99.90;;;;;;4866198;29;20064;-79
2023/06/20 00:27:14;;;;;;;10.60;7.60;;;21.30;99.90;;;;;;4854054;29;20063;-77
2023/06/20 00:29:41;;;;;;;10.27;7.65;;;21.30;99.90;;;;;;4862641;29;20071;-79
2023/06/20 00:32:08;;;;;;;14.52;7.90;;;21.20;99.90;;;;;;4851553;29;20052;-78
2023/06/20 00:34:35;;;;;;;10.77;8.32;;;21.20;99.90;;;;;;4841548;29;20049;-78
2023/06/20 00:37:02;;;;;;;11.93;8.23;;;21.20;99.70;;;;;;4849971;29;20152;-78
2023/06/20 00:39:29;;;;;;;11.68;8.80;;;21.20;99.90;;;;;;4865709;29;20059;-78
2023/06/20 00:41:57;;;;;;;11.40;8.23;;;21.10;99.90;;;;;;4878784;29;20542;-79
2023/06/20 00:44:24;;;;;;;14.10;8.80;;;21.10;99.90;;;;;;4867756;29;20075;-79
2023/06/20 00:46:52;;;;;;;13.50;8.57;;;21.10;99.90;;;;;;4867513;29;20535;-78
2023/06/20 00:49:19;;;;;;;11.07;8.23;;;21.10;99.90;;;;;;4882605;29;20063;-78
2023/06/20 00:51:46;;;;;;;16.27;9.32;;;21.10;99.90;;;;;;4865434;29;20471;-79
2023/06/20 00:54:14;;;;;;;12.05;8.10;;;21.00;99.90;;;;;;4854507;29;20073;-79
2023/06/20 00:56:42;;;;;;;13.48;8.57;;;21.00;99.80;;;;;;4873218;29;20057;-78
2023/06/20 00:59:09;;;;;;;11.88;7.78;;;21.10;99.90;;;;;;4843112;29;20056;-78
2023/06/20 01:01:37;;;;;;;12.10;7.43;;;21.10;99.90;;;;;;4868075;29;20878;-78
2023/06/20 01:04:05;;;;;;;13.05;7.82;;;21.00;99.90;;;;;;4868144;29;20517;-78
2023/06/20 01:06:49;;;;;;;13.18;8.73;;;21.00;99.80;;;;;;4843874;29;20135;-79
2023/06/20 01:09:44;;;;;;;12.38;7.68;;;21.00;99.90;;;;;;4854055;29;20040;-79
2023/06/20 01:12:23;;;;;;;9.02;6.95;;;20.90;99.90;;;;;;4850531;29;20122;-79
2023/06/20 01:14:59;;;;;;;10.40;6.50;;;20.90;99.90;;;;;;4854829;29;20052;-79
2023/06/20 01:17:53;;;;;;;10.23;7.30;;;20.90;99.90;;;;;;4866867;29;20503;-79
2023/06/20 01:20:33;;;;;;;13.65;8.43;;;20.90;99.90;;;;;;4836343;29;20119;-78
2023/06/20 01:23:03;;;;;;;12.73;8.13;;;20.80;99.90;;;;;;4858606;29;20056;-78
2023/06/20 01:25:51;;;;;;;11.23;7.57;;;20.80;99.90;;;;;;4837640;29;20940;-78
2023/06/20 01:28:40;;;;;;;10.23;7.60;;;20.80;99.90;;;;;;4855798;29;20064;-78
2023/06/20 01:31:11;;;;;;;11.15;8.10;;;20.70;99.90;;;;;;4841052;29;20048;-79
2023/06/20 01:33:51;;;;;;;13.40;8.60;;;20.70;99.90;;;;;;4842138;29;20048;-79
2023/06/20 01:36:21;;;;;;;13.23;8.32;;;20.60;99.90;;;;;;4848391;29;20530;-79
2023/06/20 01:38:53;;;;;;;12.35;8.25;;;20.70;99.90;;;;;;4855959;29;20056;-79
2023/06/20 01:41:23;;;;;;;;;;;20.60;99.90;;;;;;4870905;29;20048;-79
2023/06/20 01:43:55;;;;;;;12.20;8.80;;;20.60;99.90;;;;;;4859172;29;20306;-79
2023/06/20 01:46:24;;;;;;;10.33;7.90;;;20.60;99.90;;;;;;4841564;29;20059;-79
2023/06/20 01:48:53;;;;;;;11.63;8.27;;;20.60;99.90;;;;;;4869122;29;20047;-79
2023/06/20 01:51:21;;;;;;;13.68;8.20;;;20.60;99.90;;;;;;4866092;29;20052;-79
2023/06/20 01:53:49;;;;;;;12.48;9.07;;;20.50;99.90;;;;;;4893186;29;20500;-79
2023/06/20 01:56:18;;;;;;;10.40;8.20;;;20.50;99.90;;;;;;4867474;29;22204;-79
2023/06/20 01:58:48;;;;;;;11.90;7.28;;;20.50;99.90;;;;;;4838190;29;20441;-79
2023/06/20 02:01:16;;;;;;;10.30;7.47;;;20.40;99.90;;;;;;4841318;29;20227;-78
2023/06/20 02:03:44;;;;;;;11.93;8.48;;;20.40;99.90;;;;;;4839835;29;20630;-78
2023/06/20 02:06:13;;;;;;;11.07;8.15;;;20.40;99.90;;;;;;4841704;29;20520;-78
2023/06/20 02:08:40;;;;;;;13.25;7.85;;;20.40;99.90;;;;;;4846951;29;20044;-78
2023/06/20 02:11:09;;;;;;;10.93;7.43;;;20.40;99.90;;;;;;4864401;29;20059;-78
2023/06/20 02:13:36;;;;;;;12.23;8.32;;;20.30;99.90;;;;;;4844606;29;20069;-78
2023/06/20 02:16:08;;;;;;;10.65;8.05;;;20.30;99.90;;;;;;4847113;29;20186;-78
2023/06/20 02:18:37;;;;;;;11.13;8.63;;;20.20;99.90;;;;;;4853713;29;20747;-78
2023/06/20 02:21:10;;;;;;;12.07;8.50;;;20.10;99.90;;;;;;4861870;29;20537;-78
2023/06/20 02:23:39;;;;;;;12.38;8.73;;;20.10;99.90;;;;;;4863810;29;20744;-78
2023/06/20 02:26:11;;;;;;;14.60;8.60;;;20.10;99.90;;;;;;4855114;29;20048;-78
2023/06/20 02:28:42;;;;;;;11.07;7.88;;;20.10;99.90;;;;;;4856423;29;20072;-79
2023/06/20 02:31:15;;;;;;;13.15;8.70;;;20.20;99.90;;;;;;4855334;29;20711;-79
2023/06/20 02:33:44;;;;;;;10.35;8.13;;;20.10;99.90;;;;;;4862272;29;20148;-79
2023/06/20 02:36:13;;;;;;;11.50;7.97;;;20.10;99.90;;;;;;4848035;29;20710;-79
2023/06/20 02:38:40;;;;;;;11.85;8.25;;;20.10;99.90;;;;;;4839223;29;20760;-79
2023/06/20 02:41:08;;;;;;;11.30;7.57;;;20.10;99.90;;;;;;4849964;29;20201;-79
2023/06/20 02:43:35;;;;;;;13.30;8.18;;;20.00;99.90;;;;;;4850761;29;20427;-78
2023/06/20 02:46:29;;;;;;;14.23;8.57;;;20.00;99.90;;;;;;4848871;29;20099;-78
2023/06/20 02:49:28;;;;;;;13.07;8.70;;;20.00;99.90;;;;;;4836705;29;20052;-78
2023/06/20 02:52:14;;;;;;;16.70;9.30;;;20.00;99.90;;;;;;4843020;29;20063;-79
2023/06/20 02:54:52;;;;;;;13.55;8.88;;;20.00;99.90;;;;;;4847115;29;20178;-78
2023/06/20 02:57:21;;;;;;;13.10;8.70;;;19.90;99.90;;;;;;4852709;29;20048;-79
2023/06/20 02:59:54;;;;;;;11.18;8.65;;;19.80;99.90;;;;;;4851014;29;20159;-79
2023/06/20 03:02:29;;;;;;;16.42;10.00;;;19.80;99.90;;;;;;4852562;29;20573;-79
2023/06/20 03:05:00;;;;;;;9.70;7.60;;;19.70;99.90;;;;;;4835431;29;20044;-79
2023/06/20 03:07:33;;;;;;;12.70;7.53;;;19.80;99.90;;;;;;4862641;29;20131;-79
2023/06/20 03:10:04;;;;;;;12.32;8.85;;;19.80;99.90;;;;;;4889266;29;20066;-79
2023/06/20 03:12:31;;;;;;;11.82;8.18;;;19.80;99.90;;;;;;4850777;29;20061;-79
2023/06/20 03:14:58;;;;;;;12.15;8.63;;;19.80;99.90;;;;;;4848467;29;20192;-79
2023/06/20 03:17:26;;;;;;;11.40;8.30;;;19.80;99.90;;;;;;4862165;29;20049;-78
2023/06/20 03:19:53;;;;;;;12.50;8.13;;;19.80;99.90;;;;;;4833333;29;20048;-79
2023/06/20 03:22:22;;;;;;;11.85;8.52;;;19.80;99.90;;;;;;4861659;29;20064;-79
2023/06/20 03:24:49;;;;;;;11.85;7.30;;;19.90;99.90;;;;;;4848645;29;20148;-79
2023/06/20 03:27:17;;;;;;;11.80;8.38;;;19.90;99.90;;;;;;4865319;29;20040;-78
2023/06/20 03:29:44;;;;;;;12.02;8.20;;;19.90;99.90;;;;;;4867076;29;20060;-79
2023/06/20 03:32:11;;;;;;;11.43;8.23;;;19.90;99.90;;;;;;4859398;29;20047;-79
2023/06/20 03:34:38;;;;;;;14.85;8.60;;;19.90;99.90;;;;;;4849288;29;20135;-79
2023/06/20 03:37:06;;;;;;;10.48;7.72;;;19.80;99.90;;;;;;4852467;29;20087;-79
2023/06/20 03:39:34;;;;;;;12.80;8.63;;;19.80;99.90;;;;;;4847719;29;20436;-79
2023/06/20 03:42:01;;;;;;;14.25;8.38;;;19.90;99.90;;;;;;4841101;29;20103;-79
2023/06/20 03:44:30;;;;;;;13.60;7.50;;;19.90;99.90;;;;;;4846764;29;20053;-79
2023/06/20 03:46:57;;;;;;;11.32;8.32;;;19.90;99.90;;;;;;4855350;29;20048;-79
2023/06/20 03:49:25;;;;;;;13.68;7.97;;;19.90;99.90;;;;;;4878806;29;20036;-79
2023/06/20 03:51:52;;;;;;;10.57;7.13;;;20.00;99.90;;;;;;4861164;29;20056;-79
2023/06/20 03:54:21;;;;;;;11.77;8.07;;;20.00;99.90;;;;;;4845667;29;20067;-79
2023/06/20 03:56:48;;;;;;;12.13;8.07;;;20.00;99.90;;;;;;4845747;29;20046;-79
2023/06/20 03:59:15;;;;;;;12.35;8.52;;;20.00;99.90;;;;;;4845606;29;20094;-79
2023/06/20 04:01:42;;;;;;;12.95;8.68;;;20.00;99.90;;;;;;4847075;29;20056;-79
2023/06/20 04:04:10;;;;;;;12.85;9.18;;;19.80;99.90;;;;;;4874538;29;20052;-79
2023/06/20 04:06:38;;;;;;;12.75;8.88;;;19.80;99.90;;;;;;4880888;29;20048;-79
2023/06/20 04:09:05;;;;;;;12.55;7.85;;;19.90;99.90;;;;;;4845414;29;20730;-79
2023/06/20 04:11:32;;;;;;;12.20;7.97;;;20.00;99.90;;;;;;4847643;29;20048;-79
2023/06/20 04:14:00;;;;;;;12.60;7.70;;;20.10;99.90;;;;;;4839539;29;20059;-79
2023/06/20 04:16:27;;;;;;;11.88;7.80;;;20.30;99.90;;;;;;4848940;29;20056;-79
2023/06/20 04:18:54;;;;;;;11.60;7.90;;;20.40;99.90;;;;;;4863097;29;20048;-79
2023/06/20 04:21:23;;;;;;;13.65;8.55;;;20.50;99.90;;;;;;4869943;29;20056;-79
2023/06/20 04:23:50;;;;;;;12.77;8.70;;;20.50;99.90;;;;;;4840171;29;20084;-79
2023/06/20 04:26:17;;;;;;;14.02;8.70;;;20.30;99.90;;;;;;4862372;29;20057;-79
2023/06/20 04:28:45;;;;;;;12.25;8.55;;;20.20;99.90;;;;;;4839369;29;21128;-78
2023/06/20 04:31:12;;;;;;;12.60;7.25;;;20.30;99.90;;;;;;4853574;29;20233;-79
2023/06/20 04:33:45;;;;;;;12.05;8.00;;;20.50;99.90;;;;;;4851895;29;20192;-79
2023/06/20 04:36:13;;;;;;;10.25;7.57;;;20.60;99.90;;;;;;4863309;29;20055;-79
2023/06/20 04:38:43;;;;;;;12.07;7.93;;;20.80;99.90;;;;;;4849870;29;20048;-79
2023/06/20 04:41:11;;;;;;;10.95;7.75;;;21.00;99.90;;;;;;4866512;29;20063;-79
2023/06/20 04:43:39;;;;;;;12.38;8.13;;;21.10;99.90;;;;;;4841287;29;20156;-79
2023/06/20 04:46:06;;;;;;;12.00;8.57;;;21.10;99.30;;;;;;4854320;29;22467;-78
2023/06/20 04:48:35;;;;;;;12.07;8.07;;;21.10;99.00;;;;;;4851214;29;20048;-79
2023/06/20 04:51:07;;;;;;;9.82;7.60;;;21.20;99.00;;;;;;4860208;29;20887;-79
2023/06/20 04:53:35;;;;;;;12.40;8.48;;;21.30;98.90;;;;;;4833260;29;20709;-78
2023/06/20 04:56:03;;;;;;;12.57;8.75;;;21.30;99.10;;;;;;4857356;29;20068;-79
2023/06/20 04:58:30;;;;;;;14.38;7.95;;;21.30;99.20;;;;;;4856700;29;20088;-79
2023/06/20 05:01:00;;;;;;;12.07;8.10;;;21.30;99.30;;;;;;4849234;29;20063;-78
2023/06/20 05:03:27;;;;;;;14.38;7.90;;;21.30;99.10;;;;;;4872427;29;20044;-79
2023/06/20 05:05:54;;;;;;;11.90;8.25;;;21.30;99.40;;;;;;4874806;29;20057;-79
2023/06/20 05:08:22;;;;;;;11.40;8.80;;;21.40;98.90;;;;;;4849227;29;20492;-79
2023/06/20 05:10:49;;;;;;;14.05;8.63;;;21.30;98.80;;;;;;4860616;29;20048;-78
2023/06/20 05:13:16;;;;;;;13.18;7.68;;;21.40;98.90;;;;;;4839032;29;20884;-79
2023/06/20 05:15:44;;;;;;;11.05;7.50;;;21.40;98.90;;;;;;4877192;29;20131;-79
2023/06/20 05:18:11;;;;;;;11.88;7.90;;;21.50;98.80;;;;;;4853428;29;20061;-79
2023/06/20 05:20:38;;;;;;;12.23;7.30;;;21.70;98.40;;;;;;4863752;29;20172;-79
2023/06/20 05:23:05;;;;;;;10.68;7.30;;;21.90;98.60;;;;;;4851297;29;20716;-79
2023/06/20 05:25:32;;;;;;;11.13;6.80;;;22.00;97.40;;;;;;4864708;29;20064;-79
2023/06/20 05:27:59;;;;;;;10.93;6.45;;;22.30;97.00;;;;;;4854891;29;20052;-79
2023/06/20 05:30:28;;;;;;;11.18;6.65;;;22.40;95.80;;;;;;4840413;29;20183;-79
2023/06/20 05:32:56;;;;;;;9.77;6.57;;;22.40;95.20;;;;;;4868263;29;20100;-78
2023/06/20 05:35:23;;;;;;;9.57;6.70;;;22.40;94.70;;;;;;4864590;29;22425;-79
2023/06/20 05:37:50;;;;;;;8.48;5.80;;;22.50;94.90;;;;;;4866313;29;20070;-79
2023/06/20 05:40:17;;;;;;;6.97;5.75;;;22.60;94.50;;;;;;4856668;29;20059;-79
2023/06/20 05:42:45;;;;;;;7.57;5.22;;;22.70;94.00;;;;;;4848115;29;20044;-78
2023/06/20 05:45:12;;;;;;;7.38;5.60;;;22.80;94.20;;;;;;4854692;29;20056;-78
2023/06/20 05:47:39;;;;;;;8.85;6.05;;;22.90;93.40;;;;;;4865882;29;20040;-78
2023/06/20 05:50:07;;;;;;;7.70;5.75;;;23.00;93.30;;;;;;4847569;29;20052;-79
2023/06/20 05:52:35;;;;;;;8.82;5.65;;;23.10;93.10;;;;;;4865131;29;20051;-78
2023/06/20 05:55:04;;;;;;;7.78;5.40;;;23.20;92.90;;;;;;4854739;29;20068;-79
2023/06/20 05:57:31;;;;;;;7.28;4.88;;;23.20;92.40;;;;;;4864120;29;20044;-78
2023/06/20 05:59:58;;;;;;;7.20;5.43;;;23.50;92.70;;;;;;4871004;29;20047;-79
2023/06/20 06:02:26;;;;;;;8.07;4.95;;;23.50;91.90;;;;;;4864257;29;20057;-78
2023/06/20 06:04:53;;;;;;;5.80;4.40;;;23.50;91.50;;;;;;4860174;29;20061;-79
2023/06/20 06:07:21;;;;;;;6.90;4.47;;;23.60;91.70;;;;;;4864505;29;20052;-79
2023/06/20 06:09:48;;;;;;;6.13;4.70;;;23.70;91.20;;;;;;4866412;29;20131;-79
2023/06/20 06:12:15;;;;;;;6.93;4.80;;;23.80;91.80;;;;;;4866321;29;20096;-79
2023/06/20 06:14:42;;;;;;;5.65;4.13;;;23.90;90.80;;;;;;4851251;29;21512;-79
2023/06/20 06:17:09;;;;;;;7.40;5.38;;;24.10;91.00;;;;;;4855333;29;20056;-79
2023/06/20 06:19:37;;;;;;;7.63;5.60;;;24.20;90.40;;;;;;4870437;29;20059;-79
2023/06/20 06:22:04;;;;;;;7.55;5.53;;;24.40;90.20;;;;;;4850303;29;22264;-81
2023/06/20 06:24:31;;;;;;;6.82;4.60;;;24.50;90.10;;;;;;4886042;29;20048;-80
2023/06/20 06:26:58;;;;;;;5.93;4.63;;;24.50;88.70;;;;;;4869383;29;20048;-79
2023/06/20 06:29:26;;;;;;;8.30;5.32;;;24.50;86.70;;;;;;4866760;29;20051;-79
2023/06/20 06:31:55;;;;;;;8.00;5.32;;;24.60;87.00;;;;;;4867490;29;20693;-78
2023/06/20 06:34:22;;;;;;;6.53;4.32;;;24.60;85.40;;;;;;4866532;29;20058;-79
2023/06/20 06:36:49;;;;;;;6.43;4.95;;;24.80;87.00;;;;;;4869542;29;20063;-79
2023/06/20 06:39:18;;;;;;;7.40;5.32;;;25.00;85.80;;;;;;4867287;29;20056;-80
2023/06/20 06:41:47;;;;;;;6.35;4.90;;;25.00;85.10;;;;;;4873727;29;20040;-78
2023/06/20 06:44:15;;;;;;;6.65;5.13;;;25.10;85.50;;;;;;4868221;29;20496;-81
2023/06/20 06:46:42;;;;;;;7.70;5.13;;;25.20;86.00;;;;;;4859358;29;20504;-80
2023/06/20 06:49:09;;;;;;;5.95;4.95;;;25.20;84.40;;;;;;4868559;29;20186;-79
2023/06/20 06:51:38;;;;;;;9.35;5.43;;;25.30;83.00;;;;;;4845271;29;20052;-81
2023/06/20 06:54:05;;;;;;;7.03;5.20;;;25.40;83.00;;;;;;4850957;29;20416;-79
2023/06/20 06:56:33;;;;;;;7.57;5.03;;;25.40;82.40;;;;;;4868609;29;20179;-80
2023/06/20 06:59:01;;;;;;;7.45;5.25;;;25.50;82.80;;;;;;4858487;29;20044;-80
2023/06/20 07:01:28;;;;;;;7.53;5.30;;;25.50;82.90;;;;;;4846211;29;20103;-80
2023/06/20 07:03:56;;;;;;;7.05;4.82;;;25.60;82.30;;;;;;4876450;29;20041;-80
2023/06/20 07:06:23;;;;;;;9.00;5.60;;;25.90;84.00;;;;;;4855917;29;20295;-80
2023/06/20 07:08:52;;;;;;;6.53;5.15;;;25.90;82.90;;;;;;4866333;29;20568;-80
2023/06/20 07:11:19;;;;;;;6.63;4.88;;;26.00;82.40;;;;;;4861870;29;20115;-81
2023/06/20 07:13:46;;;;;;;5.50;4.68;;;26.00;82.90;;;;;;4852827;29;20540;-80
2023/06/20 07:16:14;;;;;;;7.13;4.88;;;26.10;82.70;;;;;;4866796;29;20057;-80
2023/06/20 07:18:41;;;;;;;6.80;5.20;;;26.30;82.50;;;;;;4865239;29;20493;-80
2023/06/20 07:21:08;;;;;;;7.47;4.32;;;26.40;80.80;;;;;;4864800;29;20195;-80
2023/06/20 07:23:35;;;;;;;9.32;5.25;;;26.40;80.40;;;;;;4852371;29;20052;-80
2023/06/20 07:26:03;;;;;;;8.35;4.97;;;26.50;80.30;;;;;;4870589;29;20040;-78
2023/06/20 07:28:30;;;;;;;5.90;4.82;;;26.50;77.80;;;;;;4858816;29;22282;-81
2023/06/20 07:30:58;;;;;;;7.10;5.07;;;26.70;79.40;;;;;;4849713;29;20203;-81
2023/06/20 07:33:25;;;;;;;6.63;5.03;;;26.90;78.00;;;;;;4868486;29;20053;-81
2023/06/20 07:35:52;;;;;;;6.07;4.45;;;26.90;78.40;;;;;;4851994;29;22361;-79
2023/06/20 07:38:19;;;;;;;7.00;4.60;;;27.00;77.80;;;;;;4857675;29;20660;-80
2023/06/20 07:40:46;;;;;;;7.47;4.65;;;27.00;76.70;;;;;;4852963;29;20079;-80
2023/06/20 07:43:13;;;;;;;5.18;4.25;;;27.10;76.30;;;;;;4865507;29;20052;-80
2023/06/20 07:45:40;;;;;;;4.93;4.13;;;27.10;76.20;;;;;;4848891;29;20049;-80
2023/06/20 07:48:08;;;;;;;6.88;4.30;;;27.20;74.80;;;;;;4861207;29;20171;-79
2023/06/20 07:50:35;;;;;;;5.50;4.13;;;27.20;73.90;;;;;;4849659;29;20052;-79
2023/06/20 07:53:02;;;;;;;4.38;3.78;;;27.30;71.80;;;;;;4866086;29;20072;-79
2023/06/20 07:55:30;;;;;;;7.68;4.60;;;27.30;73.40;;;;;;4864908;29;20513;-80
2023/06/20 07:57:58;;;;;;;4.72;3.92;;;27.50;72.70;;;;;;4859539;29;20508;-79
2023/06/20 08:00:27;;;;;;;7.30;4.78;;;27.60;70.80;;;;;;4854443;29;20155;-78
2023/06/20 08:02:55;;;;;;;6.20;3.47;;;27.60;71.60;;;;;;4848797;29;20168;-78
2023/06/20 08:05:22;;;;;;;5.30;4.40;;;27.80;71.20;;;;;;4868765;29;20164;-80
2023/06/20 08:07:50;;;;;;;6.55;4.28;;;27.80;69.90;;;;;;4861862;29;20048;-79
2023/06/20 08:10:17;;;;;;;5.90;3.85;;;27.80;71.40;;;;;;4878798;29;20055;-80
2023/06/20 08:12:44;;;;;;;6.05;3.75;;;27.90;71.20;;;;;;4883606;29;20060;-80
2023/06/20 08:15:11;;;;;;;5.05;3.88;;;28.00;70.10;;;;;;4843037;29;20044;-80
2023/06/20 08:17:39;;;;;;;5.28;3.83;;;27.90;69.50;;;;;;4868354;29;20083;-79
2023/06/20 08:20:09;;;;;;;5.82;3.70;;;27.90;68.90;;;;;;4863773;29;20052;-79
2023/06/20 08:22:38;;;;;;;4.97;3.65;;;28.00;69.60;;;;;;4843569;29;20092;-80
2023/06/20 08:25:06;;;;;;;5.45;4.07;;;28.00;69.10;;;;;;4876970;29;20520;-81
2023/06/20 08:27:33;;;;;;;5.13;3.67;;;28.00;68.30;;;;;;4853266;29;20051;-80
2023/06/20 08:30:00;;;;;;;5.57;3.72;;;28.00;68.70;;;;;;4876811;29;20078;-80
2023/06/20 08:32:27;;;;;;;5.68;3.80;;;28.10;67.80;;;;;;4857462;29;20051;-79
2023/06/20 08:34:55;;;;;;;6.97;4.55;;;28.10;67.60;;;;;;4856561;29;20583;-80
2023/06/20 08:37:23;;;;;;;5.43;3.70;;;28.30;68.50;;;;;;4849197;29;20044;-79
2023/06/20 08:39:50;;;;;;;6.38;3.90;;;28.40;67.20;;;;;;4852726;29;20052;-79
2023/06/20 08:42:18;;;;;;;4.15;3.20;;;28.40;68.20;;;;;;4869256;29;20059;-79
2023/06/20 08:44:45;;;;;;;4.13;3.50;;;28.40;68.70;;;;;;4853432;29;20095;-78
2023/06/20 08:47:15;;;;;;;4.53;3.95;;;28.40;66.10;;;;;;4867545;29;20056;-79
2023/06/20 08:49:42;;;;;;;4.40;3.20;;;28.30;66.60;;;;;;4870140;29;20088;-79
2023/06/20 08:52:13;;;;;;;5.05;3.72;;;28.40;67.80;;;;;;4863531;29;20052;-80
2023/06/20 08:54:43;;;;;;;6.35;4.13;;;28.60;68.60;;;;;;4859688;29;20068;-81
2023/06/20 08:57:10;;;;;;;6.63;3.72;;;28.70;67.00;;;;;;4866146;29;20143;-80
2023/06/20 08:59:37;;;;;;;4.43;3.75;;;28.70;66.10;;;;;;4868703;29;20114;-81
2023/06/20 09:02:04;;;;;;;6.13;3.95;;;28.70;65.40;;;;;;4862747;29;20044;-79
2023/06/20 09:04:31;;;;;;;5.40;3.85;;;28.50;63.00;;;;;;4866344;29;20095;-79
2023/06/20 09:07:01;;;;;;;6.68;3.83;;;28.40;63.80;;;;;;4867852;29;20060;-80
2023/06/20 09:09:28;;;;;;;5.20;3.97;;;28.40;64.40;;;;;;4868559;29;21123;-79
2023/06/20 09:11:59;;;;;;;5.57;4.05;;;28.40;64.70;;;;;;4873083;29;20171;-80
2023/06/20 09:14:27;;;;;;;4.20;3.80;;;28.40;66.50;;;;;;4865690;29;20777;-79
2023/06/20 09:16:56;;;;;;;5.55;4.32;;;28.60;66.00;;;;;;4862089;29;20040;-79
2023/06/20 09:19:24;;;;;;;4.85;3.75;;;28.60;65.80;;;;;;4881048;29;20106;-79
2023/06/20 09:21:51;;;;;;;8.60;4.50;;;28.60;66.00;;;;;;4869308;29;20424;-79
2023/06/20 09:24:42;;;;;;;7.72;5.28;;;28.70;66.70;;;;;;4861398;29;20052;-80
2023/06/20 09:27:09;;;;;;;6.35;3.80;;;28.80;67.20;;;;;;4866880;29;20056;-80
2023/06/20 09:29:53;;;;;;;6.07;4.00;;;28.80;65.50;;;;;;4864711;29;20568;-78
2023/06/20 09:32:21;;;;;;;6.40;4.28;;;28.90;66.10;;;;;;4870790;29;20458;-79
2023/06/20 09:34:50;;;;;;;4.82;4.22;;;29.00;66.80;;;;;;4868250;29;20468;-81
2023/06/20 09:37:17;;;;;;;4.10;3.70;;;29.00;66.00;;;;;;4867173;29;20053;-78
2023/06/20 09:39:45;;;;;;;4.65;4.03;;;29.00;67.40;;;;;;4857281;29;20059;-80
2023/06/20 09:42:15;;;;;;;4.35;3.88;;;29.00;66.80;;;;;;4866898;29;20558;-80
2023/06/20 09:44:42;;;;;;;4.35;3.90;;;29.00;65.40;;;;;;4857348;29;20142;-79
2023/06/20 09:47:09;;;;;;;5.95;4.35;;;29.00;65.90;;;;;;4874588;29;20155;-79
2023/06/20 09:49:39;;;;;;;6.45;4.10;;;29.00;65.70;;;;;;4847899;29;22358;-79
2023/06/20 09:52:14;;;;;;;5.00;4.10;;;28.80;63.70;;;;;;4866861;29;20056;-78
2023/06/20 09:54:55;;;;;;;6.07;4.15;;;28.80;65.40;;;;;;4879137;29;20484;-79
2023/06/20 09:57:33;;;;;;;5.72;3.88;;;28.80;65.80;;;;;;4861772;29;20191;-80
2023/06/20 10:00:04;;;;;;;5.45;4.15;;;29.00;66.50;;;;;;4874389;29;20048;-79
2023/06/20 10:02:33;;;;;;;5.50;3.67;;;29.10;65.90;;;;;;4872588;29;20469;-79
2023/06/20 10:05:01;;;;;;;6.97;4.65;;;29.20;65.60;;;;;;4850537;29;20063;-79
2023/06/20 10:07:29;;;;;;;5.55;4.15;;;29.20;64.70;;;;;;4852617;29;20516;-79
2023/06/20 10:09:58;;;;;;;5.35;4.53;;;29.20;65.10;;;;;;4858644;29;20139;-78
2023/06/20 10:12:27;;;;;;;6.45;5.00;;;29.20;65.30;;;;;;4866351;29;20057;-80
2023/06/20 10:14:55;;;;;;;4.72;3.50;;;29.20;65.20;;;;;;4861722;29;20056;-79
2023/06/20 10:17:35;;;;;;;4.75;4.25;;;29.30;65.30;;;;;;4868377;29;20215;-79
2023/06/20 10:20:07;;;;;;;5.18;3.63;;;29.30;63.00;;;;;;4871009;29;20052;-79
2023/06/20 10:22:38;;;;;;;;;;;29.20;62.20;;;;;;4855748;29;20063;-78
2023/06/20 10:25:14;;;;;;;5.75;4.20;;;29.10;62.80;;;;;;4848931;29;19979;-79
2023/06/20 10:27:44;;;;;;;4.50;3.88;;;29.00;61.50;;;;;;4861428;29;22341;-79
2023/06/20 10:30:15;;;;;;;4.47;4.03;;;28.90;61.10;;;;;;4844372;29;20055;-78
2023/06/20 10:33:06;;;;;;;5.03;3.65;;;28.90;61.30;;;;;;4854460;29;20424;-78
2023/06/20 10:35:34;;;;;;;4.82;3.22;;;29.20;64.00;;;;;;4870556;29;20404;-78
2023/06/20 10:38:09;;;;;;;4.53;3.75;;;29.20;63.60;;;;;;4862622;29;20051;-79
2023/06/20 10:40:39;;;;;;;4.25;3.72;;;29.30;63.50;;;;;;4852641;29;20055;-79
2023/06/20 10:43:17;;;;;;;6.43;4.18;;;29.20;62.60;;;;;;4877224;29;24526;-78
2023/06/20 10:45:59;;;;;;;4.97;4.00;;;29.10;60.50;;;;;;4863784;29;20057;-79
2023/06/20 10:48:26;;;;;;;;;;;29.10;60.70;;;;;;4846983;29;22264;-79
2023/06/20 10:51:00;;;;;;;5.97;4.10;;;29.10;60.60;;;;;;4870790;29;20635;-78
2023/06/20 10:53:29;;;;;;;5.63;3.60;;;29.10;64.20;;;;;;4869808;29;20139;-79
2023/06/20 10:55:56;;;;;;;6.10;3.80;;;29.20;62.00;;;;;;4864268;29;20123;-79
2023/06/20 10:58:23;;;;;;;4.93;4.00;;;29.10;62.40;;;;;;4850875;29;20721;-79
2023/06/20 11:00:59;;;;;;;6.50;4.13;;;29.20;62.10;;;;;;4865861;29;20078;-79
2023/06/20 11:03:28;;;;;;;4.88;3.55;;;29.10;64.50;;;;;;4867878;29;20361;-78
2023/06/20 11:05:55;;;;;;;5.97;4.07;;;29.20;63.60;;;;;;4852696;29;20520;-78
2023/06/20 11:08:26;;;;;;;5.30;3.50;;;29.20;63.10;;;;;;4867639;29;20048;-79
2023/06/20 11:10:54;;;;;;;5.03;3.72;;;29.40;63.20;;;;;;4834819;29;20119;-79
2023/06/20 11:13:23;;;;;;;4.10;3.33;;;29.40;62.10;;;;;;4849636;29;20836;-79
2023/06/20 11:15:50;;;;;;;3.92;3.53;;;29.40;60.80;;;;;;4849757;29;20048;-79
2023/06/20 11:18:18;;;;;;;4.63;3.53;;;29.50;59.80;;;;;;4851568;29;20174;-80
2023/06/20 11:20:45;;;;;;;5.07;3.80;;;29.50;60.40;;;;;;4850640;29;22383;-78
2023/06/20 11:23:13;;;;;;;5.53;3.75;;;29.40;58.50;;;;;;4851447;29;22357;-78
2023/06/20 11:25:42;;;;;;;4.45;3.70;;;29.40;58.40;;;;;;4863091;29;20052;-79
2023/06/20 11:28:14;;;;;;;4.63;3.58;;;29.40;58.70;;;;;;4863970;29;20530;-79
2023/06/20 11:30:43;;;;;;;4.05;3.45;;;29.50;57.50;;;;;;4857934;29;20180;-78
2023/06/20 11:33:13;;;;;;;4.70;3.55;;;29.50;57.60;;;;;;4866397;29;20047;-79
2023/06/20 11:35:48;;;;;;;4.90;3.40;;;29.60;59.10;;;;;;4839977;29;20056;-79
2023/06/20 11:38:23;;;;;;;4.78;3.42;;;29.60;57.70;;;;;;4862109;29;20060;-79
2023/06/20 11:41:04;;;;;;;5.28;3.05;;;29.40;56.90;;;;;;4850760;29;20055;-79
2023/06/20 11:43:39;;;;;;;4.90;3.35;;;29.50;58.80;;;;;;4842423;29;20052;-78
2023/06/20 11:46:08;;;;;;;5.72;3.85;;;29.50;59.40;;;;;;4886699;29;20504;-78
2023/06/20 11:48:35;;;;;;;3.65;3.28;;;29.50;58.00;;;;;;4868477;29;20044;-79
2023/06/20 11:51:06;;;;;;;4.82;3.67;;;29.60;56.80;;;;;;4866820;29;20044;-79
2023/06/20 11:53:36;;;;;;;4.22;3.05;;;29.70;57.20;;;;;;4850832;29;20181;-80
2023/06/20 11:56:07;;;;;;;4.35;3.45;;;29.70;58.50;;;;;;4851004;29;20055;-79
2023/06/20 11:58:38;;;;;;;4.63;3.28;;;29.70;57.50;;;;;;4845028;29;20646;-79
2023/06/20 12:01:20;;;;;;;5.38;3.88;;;29.50;59.20;;;;;;4848666;29;20052;-79
2023/06/20 12:04:05;;;;;;;4.22;3.80;;;29.50;59.70;;;;;;4855764;29;20479;-79
2023/06/20 12:06:39;;;;;;;5.35;3.88;;;29.30;59.90;;;;;;4836980;29;20625;-79
2023/06/20 12:09:09;;;;;;;4.90;3.80;;;29.20;60.00;;;;;;4868941;29;20191;-79
2023/06/20 12:11:49;;;;;;;5.25;3.97;;;29.10;58.50;;;;;;4864755;29;20120;-79
2023/06/20 12:14:17;;;;;;;4.95;4.13;;;29.20;58.40;;;;;;4865963;29;20056;-80
2023/06/20 12:16:44;;;;;;;5.57;3.75;;;29.20;58.10;;;;;;4879255;29;20048;-79
2023/06/20 12:19:13;;;;;;;4.82;3.88;;;29.30;59.00;;;;;;4849468;29;22438;-79
2023/06/20 12:21:42;;;;;;;4.45;4.00;;;29.40;59.50;;;;;;4867573;29;20057;-80
2023/06/20 12:24:11;;;;;;;7.40;4.43;;;29.40;59.30;;;;;;4861495;29;20052;-79
2023/06/20 12:26:38;;;;;;;4.28;3.50;;;29.40;59.40;;;;;;4871570;29;20647;-79
2023/06/20 12:29:08;;;;;;;5.57;4.38;;;29.50;60.20;;;;;;4855400;29;20119;-79
2023/06/20 12:31:36;;;;;;;4.90;3.90;;;29.60;61.40;;;;;;4867414;29;20546;-80
2023/06/20 12:34:03;;;;;;;5.07;4.00;;;29.50;59.10;;;;;;4877329;29;20127;-79
2023/06/20 12:36:31;;;;;;;4.50;3.38;;;29.50;59.60;;;;;;4873738;29;20790;-79
2023/06/20 12:38:58;;;;;;;4.70;3.92;;;29.60;60.30;;;;;;4879040;29;20052;-78
2023/06/20 12:41:35;;;;;;;5.88;3.78;;;29.50;58.50;;;;;;4850734;29;20524;-79
2023/06/20 12:44:02;;;;;;;6.43;4.10;;;29.50;60.40;;;;;;4850541;29;20551;-79
2023/06/20 12:46:30;;;;;;;5.40;3.40;;;29.60;60.60;;;;;;4854466;29;20096;-80
2023/06/20 12:48:59;;;;;;;6.75;4.28;;;29.70;60.30;;;;;;4857955;29;20076;-79
2023/06/20 12:51:26;;;;;;;5.88;4.25;;;29.70;60.00;;;;;;4870005;29;20049;-79
2023/06/20 12:53:53;;;;;;;6.28;4.15;;;29.70;60.60;;;;;;4865031;29;20452;-79